JEC5426 SKBO-SKRG
Flight info
| Callsign | JEC5426 |
|---|---|
| Flight time | 0h 25m |
| Altitude | 21000 |
| Route | VASIL2T VASIL DCT NIRSO NIRSO3C |
| Aircraft | A20N/M-SDE2E3FGHIRWXY/LB1 |
Departure
| Time | 2026-04-21 21:35 |
|---|---|
| Airport | El Dorado International Airport (SKBO) |
Arrival
| Time | 2026-04-21 22:00 |
|---|---|
| Airport | Jose Maria Córdova International Airport (SKRG) |
| Time | Latitude | Longitude | Altitude | Speed | Heading |
|---|---|---|---|---|---|
| 2026-04-21 21:18 | 4.69422 | -74.13289 | 8365 ft | 0 kts | 127° |
| 2026-04-21 21:24 | 4.69423 | -74.13289 | 8365 ft | 1 kts | 127° |
| 2026-04-21 21:24 | 4.69426 | -74.13295 | 8365 ft | 1 kts | 127° |
| 2026-04-21 21:24 | 4.69429 | -74.13298 | 8365 ft | 1 kts | 127° |
| 2026-04-21 21:24 | 4.69435 | -74.13306 | 8366 ft | 2 kts | 127° |
| 2026-04-21 21:25 | 4.69443 | -74.13317 | 8365 ft | 2 kts | 127° |
| 2026-04-21 21:25 | 4.69444 | -74.13318 | 8365 ft | 2 kts | 127° |
| 2026-04-21 21:25 | 4.69446 | -74.13321 | 8365 ft | 2 kts | 125° |
| 2026-04-21 21:26 | 4.69452 | -74.13331 | 8366 ft | 2 kts | 88° |
| 2026-04-21 21:26 | 4.69454 | -74.13333 | 8365 ft | 2 kts | 52° |
| 2026-04-21 21:26 | 4.69468 | -74.13321 | 8365 ft | 2 kts | 39° |
| 2026-04-21 21:26 | 4.69472 | -74.13318 | 8365 ft | 0 kts | 38° |
| 2026-04-21 21:30 | 4.69481 | -74.13311 | 8365 ft | 6 kts | 38° |
| 2026-04-21 21:31 | 4.69522 | -74.13267 | 8365 ft | 11 kts | 79° |
| 2026-04-21 21:31 | 4.69470 | -74.13179 | 8365 ft | 20 kts | 127° |
| 2026-04-21 21:31 | 4.69367 | -74.13042 | 8365 ft | 29 kts | 127° |
| 2026-04-21 21:31 | 4.69319 | -74.12872 | 8365 ft | 29 kts | 113° |
| 2026-04-21 21:32 | 4.69201 | -74.12707 | 8365 ft | 22 kts | 121° |
| 2026-04-21 21:32 | 4.69212 | -74.12593 | 8366 ft | 13 kts | 75° |
| 2026-04-21 21:32 | 4.69214 | -74.12584 | 8366 ft | 0 kts | 75° |
| 2026-04-21 21:33 | 4.69217 | -74.12574 | 8366 ft | 5 kts | 75° |
| 2026-04-21 21:33 | 4.69250 | -74.12507 | 8367 ft | 14 kts | 39° |
| 2026-04-21 21:34 | 4.69324 | -74.12539 | 8366 ft | 20 kts | 306° |
| 2026-04-21 21:34 | 4.69533 | -74.12819 | 8365 ft | 82 kts | 307° |
| 2026-04-21 21:34 | 4.69989 | -74.13422 | 8366 ft | 132 kts | 307° |
| 2026-04-21 21:34 | 4.70629 | -74.14273 | 8405 ft | 170 kts | 306° |
| 2026-04-21 21:35 | 4.71348 | -74.15218 | 8918 ft | 177 kts | 306° |
| 2026-04-21 21:35 | 4.72132 | -74.16230 | 9497 ft | 190 kts | 308° |
| 2026-04-21 21:35 | 4.72982 | -74.17286 | 10089 ft | 199 kts | 308° |
| 2026-04-21 21:35 | 4.73821 | -74.18398 | 10660 ft | 200 kts | 306° |
| 2026-04-21 21:36 | 4.74672 | -74.19577 | 10994 ft | 219 kts | 306° |
| 2026-04-21 21:36 | 4.75438 | -74.20970 | 11217 ft | 241 kts | 287° |
| 2026-04-21 21:36 | 4.75520 | -74.22711 | 11413 ft | 265 kts | 260° |
| 2026-04-21 21:36 | 4.75144 | -74.24593 | 11648 ft | 287 kts | 258° |
| 2026-04-21 21:37 | 4.74711 | -74.26634 | 11869 ft | 311 kts | 258° |
| 2026-04-21 21:37 | 4.74582 | -74.28866 | 12067 ft | 333 kts | 278° |
| 2026-04-21 21:37 | 4.75310 | -74.31131 | 12375 ft | 350 kts | 296° |
| 2026-04-21 21:37 | 4.76480 | -74.33285 | 13042 ft | 355 kts | 300° |
| 2026-04-21 21:38 | 4.77699 | -74.35465 | 13751 ft | 359 kts | 298° |
| 2026-04-21 21:38 | 4.78866 | -74.37706 | 14390 ft | 364 kts | 296° |
| 2026-04-21 21:38 | 4.79979 | -74.39999 | 15034 ft | 367 kts | 295° |
| 2026-04-21 21:38 | 4.81045 | -74.42298 | 15649 ft | 370 kts | 294° |
| 2026-04-21 21:39 | 4.82119 | -74.44661 | 16255 ft | 374 kts | 294° |
| 2026-04-21 21:39 | 4.83197 | -74.47049 | 16849 ft | 378 kts | 294° |
| 2026-04-21 21:39 | 4.84285 | -74.49463 | 17443 ft | 381 kts | 294° |
| 2026-04-21 21:39 | 4.85383 | -74.51895 | 18032 ft | 384 kts | 294° |
| 2026-04-21 21:40 | 4.86493 | -74.54351 | 18584 ft | 388 kts | 294° |
| 2026-04-21 21:40 | 4.87611 | -74.56823 | 19089 ft | 391 kts | 294° |
| 2026-04-21 21:40 | 4.88739 | -74.59318 | 19609 ft | 393 kts | 293° |
| 2026-04-21 21:40 | 4.89872 | -74.61824 | 20102 ft | 396 kts | 293° |
| 2026-04-21 21:41 | 4.91013 | -74.64348 | 20606 ft | 399 kts | 293° |
| 2026-04-21 21:41 | 4.92164 | -74.66894 | 20978 ft | 402 kts | 293° |
| 2026-04-21 21:41 | 4.93318 | -74.69449 | 21077 ft | 403 kts | 293° |
| 2026-04-21 21:41 | 4.94461 | -74.71979 | 21077 ft | 403 kts | 293° |
| 2026-04-21 21:42 | 4.95619 | -74.74542 | 21057 ft | 403 kts | 293° |
| 2026-04-21 21:42 | 4.96776 | -74.77105 | 21037 ft | 403 kts | 293° |
| 2026-04-21 21:42 | 4.97934 | -74.79671 | 21025 ft | 403 kts | 293° |
| 2026-04-21 21:42 | 4.99090 | -74.82231 | 21011 ft | 403 kts | 293° |
| 2026-04-21 21:43 | 5.00249 | -74.84798 | 21000 ft | 403 kts | 293° |
| 2026-04-21 21:43 | 5.01407 | -74.87364 | 20991 ft | 403 kts | 294° |
| 2026-04-21 21:43 | 5.02565 | -74.89931 | 20982 ft | 404 kts | 293° |
| 2026-04-21 21:43 | 5.03723 | -74.92497 | 20972 ft | 403 kts | 294° |
| 2026-04-21 21:44 | 5.04863 | -74.95025 | 20976 ft | 403 kts | 293° |
| 2026-04-21 21:44 | 5.06022 | -74.97594 | 20976 ft | 404 kts | 294° |
| 2026-04-21 21:44 | 5.07181 | -75.00161 | 20981 ft | 403 kts | 293° |
| 2026-04-21 21:44 | 5.08340 | -75.02732 | 20992 ft | 404 kts | 293° |
| 2026-04-21 21:45 | 5.09497 | -75.05298 | 21003 ft | 404 kts | 293° |
| 2026-04-21 21:45 | 5.10655 | -75.07865 | 21018 ft | 404 kts | 293° |
| 2026-04-21 21:45 | 5.11812 | -75.10433 | 21031 ft | 404 kts | 293° |
| 2026-04-21 21:45 | 5.12970 | -75.13002 | 21046 ft | 405 kts | 293° |
| 2026-04-21 21:46 | 5.14145 | -75.15568 | 21062 ft | 405 kts | 297° |
| 2026-04-21 21:46 | 5.15759 | -75.17883 | 21077 ft | 407 kts | 313° |
| 2026-04-21 21:46 | 5.17955 | -75.19687 | 21161 ft | 410 kts | 328° |
| 2026-04-21 21:46 | 5.20556 | -75.20841 | 21155 ft | 411 kts | 342° |
| 2026-04-21 21:47 | 5.23332 | -75.21569 | 21144 ft | 412 kts | 345° |
| 2026-04-21 21:47 | 5.26104 | -75.22299 | 21123 ft | 411 kts | 343° |
| 2026-04-21 21:47 | 5.28804 | -75.23139 | 21097 ft | 412 kts | 341° |
| 2026-04-21 21:47 | 5.31511 | -75.24095 | 20844 ft | 413 kts | 339° |
| 2026-04-21 21:48 | 5.34212 | -75.25120 | 20280 ft | 416 kts | 338° |
| 2026-04-21 21:48 | 5.36920 | -75.26181 | 19671 ft | 416 kts | 338° |
| 2026-04-21 21:48 | 5.39610 | -75.27245 | 19089 ft | 414 kts | 338° |
| 2026-04-21 21:48 | 5.42277 | -75.28301 | 18487 ft | 412 kts | 338° |
| 2026-04-21 21:49 | 5.44954 | -75.29359 | 17660 ft | 414 kts | 338° |
| 2026-04-21 21:49 | 5.47625 | -75.30413 | 17062 ft | 409 kts | 338° |
| 2026-04-21 21:49 | 5.50257 | -75.31450 | 16500 ft | 403 kts | 338° |
| 2026-04-21 21:49 | 5.52858 | -75.32474 | 15946 ft | 398 kts | 338° |
| 2026-04-21 21:50 | 5.55423 | -75.33484 | 15460 ft | 392 kts | 338° |
| 2026-04-21 21:50 | 5.57915 | -75.34464 | 15295 ft | 374 kts | 338° |
| 2026-04-21 21:50 | 5.60272 | -75.35392 | 15092 ft | 354 kts | 338° |
| 2026-04-21 21:50 | 5.62470 | -75.36259 | 14927 ft | 335 kts | 338° |
| 2026-04-21 21:51 | 5.64581 | -75.37091 | 14770 ft | 316 kts | 338° |
| 2026-04-21 21:51 | 5.66570 | -75.37875 | 14613 ft | 297 kts | 338° |
| 2026-04-21 21:51 | 5.68444 | -75.38613 | 14437 ft | 282 kts | 337° |
| 2026-04-21 21:51 | 5.70256 | -75.39329 | 14052 ft | 279 kts | 337° |
| 2026-04-21 21:52 | 5.72055 | -75.40040 | 13758 ft | 277 kts | 337° |
| 2026-04-21 21:52 | 5.73840 | -75.40743 | 13409 ft | 275 kts | 337° |
| 2026-04-21 21:52 | 5.75611 | -75.41442 | 13158 ft | 269 kts | 337° |
| 2026-04-21 21:52 | 5.77354 | -75.42014 | 13036 ft | 259 kts | 347° |
| 2026-04-21 21:53 | 5.79184 | -75.42232 | 12914 ft | 271 kts | 359° |
| 2026-04-21 21:53 | 5.81068 | -75.42212 | 12821 ft | 270 kts | 359° |
| 2026-04-21 21:53 | 5.82951 | -75.42205 | 12463 ft | 271 kts | 359° |
| 2026-04-21 21:53 | 5.84836 | -75.42189 | 12183 ft | 266 kts | 0° |
| 2026-04-21 21:54 | 5.86648 | -75.42144 | 12010 ft | 257 kts | 360° |
| 2026-04-21 21:54 | 5.88392 | -75.42131 | 11756 ft | 251 kts | 358° |
| 2026-04-21 21:54 | 5.90085 | -75.42141 | 11501 ft | 247 kts | 358° |
| 2026-04-21 21:54 | 5.91791 | -75.42151 | 11240 ft | 243 kts | 358° |
| 2026-04-21 21:55 | 5.93442 | -75.42162 | 10996 ft | 230 kts | 358° |
| 2026-04-21 21:55 | 5.95002 | -75.42171 | 10722 ft | 218 kts | 358° |
| 2026-04-21 21:55 | 5.96484 | -75.42181 | 10471 ft | 208 kts | 358° |
| 2026-04-21 21:55 | 5.97884 | -75.42190 | 10240 ft | 194 kts | 358° |
| 2026-04-21 21:56 | 5.99192 | -75.42198 | 10009 ft | 181 kts | 358° |
| 2026-04-21 21:56 | 6.00411 | -75.42207 | 9782 ft | 171 kts | 358° |
| 2026-04-21 21:56 | 6.01569 | -75.42214 | 9584 ft | 160 kts | 358° |
| 2026-04-21 21:56 | 6.02661 | -75.42222 | 9385 ft | 157 kts | 358° |
| 2026-04-21 21:57 | 6.03753 | -75.42229 | 9191 ft | 157 kts | 358° |
| 2026-04-21 21:57 | 6.04830 | -75.42236 | 9009 ft | 156 kts | 358° |
| 2026-04-21 21:57 | 6.05915 | -75.42243 | 8806 ft | 155 kts | 358° |
| 2026-04-21 21:57 | 6.06994 | -75.42250 | 8615 ft | 155 kts | 359° |
| 2026-04-21 21:58 | 6.08072 | -75.42257 | 8425 ft | 155 kts | 359° |
| 2026-04-21 21:58 | 6.09145 | -75.42264 | 8228 ft | 154 kts | 359° |
| 2026-04-21 21:58 | 6.10217 | -75.42269 | 8034 ft | 153 kts | 358° |
| 2026-04-21 21:58 | 6.11277 | -75.42264 | 7805 ft | 152 kts | 359° |
| 2026-04-21 21:59 | 6.12327 | -75.42272 | 7565 ft | 149 kts | 359° |
| 2026-04-21 21:59 | 6.13362 | -75.42286 | 7387 ft | 149 kts | 357° |
| 2026-04-21 21:59 | 6.14396 | -75.42299 | 7172 ft | 148 kts | 359° |
| 2026-04-21 21:59 | 6.15400 | -75.42301 | 6983 ft | 143 kts | 0° |
| 2026-04-21 22:00 | 6.16211 | -75.42308 | 6979 ft | 85 kts | 0° |
| 2026-04-21 22:00 | 6.16683 | -75.42309 | 6992 ft | 50 kts | 358° |
| 2026-04-21 22:00 | 6.16986 | -75.42348 | 7012 ft | 39 kts | 339° |
| 2026-04-21 22:00 | 6.17112 | -75.42413 | 7012 ft | 2 kts | 329° |
| 2026-04-21 22:01 | 6.17180 | -75.42457 | 7015 ft | 25 kts | 327° |
| 2026-04-21 22:01 | 6.17197 | -75.42471 | 7017 ft | 0 kts | 304° |
| 2026-04-21 22:01 | 6.17197 | -75.42476 | 7018 ft | 4 kts | 281° |
| 2026-04-21 22:01 | 6.17187 | -75.42574 | 7014 ft | 23 kts | 263° |